Time;durP1;ratioP1;P1;durP2;ratioP2;P2;SDS_P1;SDS_P2;PMS_P1;PMS_P2;Temp;Humidity;BMP_temperature;BMP_pressure;BME280_temperature;BME280_humidity;BME280_pressure;Samples;Min_cycle;Max_cycle;Signal;HPM_P1;HPM_P2
2023/02/08 00:01:39;;;;;;;29.30;12.80;;;;;;;;;;4977259;28;20551;-59
2023/02/08 00:04:04;;;;;;;25.88;13.13;;;;;;;;;;4985151;28;20124;-59
2023/02/08 00:06:30;;;;;;;24.25;12.55;;;;;;;;;;4977900;28;20037;-59
2023/02/08 00:08:55;;;;;;;22.85;12.35;;;;;;;;;;4980808;28;20041;-59
2023/02/08 00:11:20;;;;;;;27.30;11.75;;;;;;;;;;4977046;28;20027;-62
2023/02/08 00:13:48;;;;;;;33.00;13.70;;;;;;;;;;4976077;28;20041;-59
2023/02/08 00:16:14;;;;;;;25.42;12.40;;;;;;;;;;4983887;28;20035;-60
2023/02/08 00:18:39;;;;;;;23.20;12.02;;;;;;;;;;4976817;28;20234;-59
2023/02/08 00:21:12;;;;;;;27.38;12.57;;;;;;;;;;4982259;28;20031;-58
2023/02/08 00:23:37;;;;;;;27.88;12.68;;;;;;;;;;4977920;28;20538;-61
2023/02/08 00:26:03;;;;;;;31.60;13.05;;;;;;;;;;4978988;28;20160;-58
2023/02/08 00:28:28;;;;;;;26.55;13.55;;;;;;;;;;4979696;28;20059;-58
2023/02/08 00:30:53;;;;;;;22.13;12.43;;;;;;;;;;4978728;28;20026;-60
2023/02/08 00:33:19;;;;;;;27.73;12.70;;;;;;;;;;4982455;28;20091;-59
2023/02/08 00:35:45;;;;;;;26.40;12.95;;;;;;;;;;4974947;28;20031;-59
2023/02/08 00:38:10;;;;;;;29.40;13.32;;;;;;;;;;4977519;28;20530;-60
2023/02/08 00:40:36;;;;;;;28.95;13.10;;;;;;;;;;4980884;28;20112;-59
2023/02/08 00:43:01;;;;;;;25.73;12.75;;;;;;;;;;4975224;28;20145;-60
2023/02/08 00:45:27;;;;;;;29.98;13.15;;;;;;;;;;4983273;28;20032;-60
2023/02/08 00:47:52;;;;;;;29.67;13.02;;;;;;;;;;4981520;28;20344;-59
2023/02/08 00:50:19;;;;;;;27.58;12.77;;;;;;;;;;4979369;28;20033;-60
2023/02/08 00:52:44;;;;;;;22.55;13.43;;;;;;;;;;4984220;28;20038;-59
2023/02/08 00:55:09;;;;;;;23.05;12.43;;;;;;;;;;4977850;28;20565;-59
2023/02/08 00:57:34;;;;;;;30.23;12.98;;;;;;;;;;4984894;28;20121;-58
2023/02/08 01:00:00;;;;;;;24.58;12.23;;;;;;;;;;4974414;28;20031;-59
2023/02/08 01:02:26;;;;;;;24.60;12.20;;;;;;;;;;4990426;28;20096;-60
2023/02/08 01:04:51;;;;;;;23.00;12.27;;;;;;;;;;4981057;28;21410;-58
2023/02/08 01:07:16;;;;;;;27.85;12.77;;;;;;;;;;4973035;28;20054;-59
2023/02/08 01:09:41;;;;;;;24.13;12.50;;;;;;;;;;4982647;28;20041;-59
2023/02/08 01:12:07;;;;;;;23.80;11.57;;;;;;;;;;4977522;28;20491;-59
2023/02/08 01:14:33;;;;;;;33.47;12.10;;;;;;;;;;4973809;28;20082;-59
2023/02/08 01:16:58;;;;;;;26.35;12.85;;;;;;;;;;4967828;28;20128;-59
2023/02/08 01:19:23;;;;;;;26.38;12.20;;;;;;;;;;4977245;28;20325;-59
2023/02/08 01:21:49;;;;;;;26.00;11.80;;;;;;;;;;4983682;28;20602;-60
2023/02/08 01:24:14;;;;;;;25.45;11.93;;;;;;;;;;4973919;28;20081;-59
2023/02/08 01:26:40;;;;;;;22.02;11.35;;;;;;;;;;4974934;28;20030;-60
2023/02/08 01:29:05;;;;;;;29.67;12.57;;;;;;;;;;4984886;28;20428;-59
2023/02/08 01:31:35;;;;;;;29.83;12.55;;;;;;;;;;4976341;28;20367;-59
2023/02/08 01:34:01;;;;;;;21.48;11.15;;;;;;;;;;4981799;28;20432;-61
2023/02/08 01:36:27;;;;;;;25.15;11.88;;;;;;;;;;4978774;28;20049;-61
2023/02/08 01:38:52;;;;;;;29.17;13.00;;;;;;;;;;4976420;28;20554;-60
2023/02/08 01:41:28;;;;;;;24.90;11.70;;;;;;;;;;4984236;28;20691;-60
2023/02/08 01:43:59;;;;;;;23.88;12.10;;;;;;;;;;4985352;28;20031;-60
2023/02/08 01:46:25;;;;;;;23.38;11.32;;;;;;;;;;4974080;28;20077;-60
2023/02/08 01:48:50;;;;;;;24.42;11.70;;;;;;;;;;4980849;28;20105;-59
2023/02/08 01:51:19;;;;;;;23.83;11.75;;;;;;;;;;4977697;28;20129;-59
2023/02/08 01:53:44;;;;;;;25.98;12.55;;;;;;;;;;4992521;28;20034;-59
2023/02/08 01:56:14;;;;;;;23.10;11.55;;;;;;;;;;4977333;28;20040;-59
2023/02/08 01:58:43;;;;;;;26.30;11.98;;;;;;;;;;4971321;28;20073;-60
2023/02/08 02:01:09;;;;;;;25.55;11.70;;;;;;;;;;4991722;28;20030;-58
2023/02/08 02:03:34;;;;;;;27.30;12.25;;;;;;;;;;4978038;28;20708;-58
2023/02/08 02:06:02;;;;;;;28.10;12.35;;;;;;;;;;4982314;28;20040;-60
2023/02/08 02:08:29;;;;;;;34.45;12.75;;;;;;;;;;4974342;28;20485;-58
2023/02/08 02:10:55;;;;;;;28.73;12.82;;;;;;;;;;4976167;28;20034;-60
2023/02/08 02:13:22;;;;;;;26.38;12.85;;;;;;;;;;4982060;28;20660;-58
2023/02/08 02:15:48;;;;;;;24.27;12.15;;;;;;;;;;4985873;28;20026;-59
2023/02/08 02:18:18;;;;;;;23.77;10.82;;;;;;;;;;4965847;28;20041;-58
2023/02/08 02:20:51;;;;;;;27.50;12.75;;;;;;;;;;4976328;28;20437;-58
2023/02/08 02:23:31;;;;;;;29.45;12.38;;;;;;;;;;4976694;28;20116;-59
2023/02/08 02:26:05;;;;;;;26.75;12.18;;;;;;;;;;4997919;28;20142;-59
2023/02/08 02:28:41;;;;;;;25.85;12.00;;;;;;;;;;4976242;28;20061;-59
2023/02/08 02:31:25;;;;;;;27.90;12.98;;;;;;;;;;4974846;28;20034;-58
2023/02/08 02:33:56;;;;;;;27.88;12.52;;;;;;;;;;4979419;28;20034;-59
2023/02/08 02:36:27;;;;;;;25.52;10.93;;;;;;;;;;4974224;28;20444;-59
2023/02/08 02:39:07;;;;;;;24.27;11.48;;;;;;;;;;4976154;28;20042;-59
2023/02/08 02:44:26;;;;;;;27.85;11.65;;;;;;;;;;4974535;28;20057;-59
2023/02/08 02:47:05;;;;;;;30.27;12.95;;;;;;;;;;4971724;28;20031;-58
2023/02/08 02:49:54;;;;;;;28.05;12.15;;;;;;;;;;4981850;28;20506;-59
2023/02/08 02:52:40;;;;;;;27.80;11.32;;;;;;;;;;4966692;28;20042;-59
2023/02/08 02:55:11;;;;;;;24.13;11.90;;;;;;;;;;4975760;28;20041;-59
2023/02/08 02:57:36;;;;;;;26.45;11.85;;;;;;;;;;4982653;28;20038;-60
2023/02/08 03:00:06;;;;;;;25.48;12.85;;;;;;;;;;4973669;28;20148;-59
2023/02/08 03:02:31;;;;;;;24.23;12.05;;;;;;;;;;4981681;28;20022;-59
2023/02/08 03:04:56;;;;;;;28.20;12.63;;;;;;;;;;4977779;28;20032;-60
2023/02/08 03:07:31;;;;;;;22.20;11.75;;;;;;;;;;4972102;28;20025;-59
2023/02/08 03:10:15;;;;;;;25.65;11.10;;;;;;;;;;4981134;28;20216;-59
2023/02/08 03:12:56;;;;;;;22.73;11.70;;;;;;;;;;4976684;28;20038;-58
2023/02/08 03:15:31;;;;;;;28.70;13.27;;;;;;;;;;4982685;28;20557;-59
2023/02/08 03:18:08;;;;;;;25.85;11.38;;;;;;;;;;4979584;28;20081;-60
2023/02/08 03:20:37;;;;;;;37.60;15.05;;;;;;;;;;4977325;28;20023;-60
2023/02/08 03:23:14;;;;;;;23.80;11.95;;;;;;;;;;4983521;28;20035;-59
2023/02/08 03:25:51;;;;;;;28.70;12.27;;;;;;;;;;4976813;28;20349;-59
2023/02/08 03:28:19;;;;;;;27.17;12.18;;;;;;;;;;4974726;28;20038;-59
2023/02/08 03:30:48;;;;;;;27.98;11.75;;;;;;;;;;4982689;28;20457;-59
2023/02/08 03:33:16;;;;;;;30.10;11.98;;;;;;;;;;4979401;28;20403;-59
2023/02/08 03:35:49;;;;;;;27.58;11.98;;;;;;;;;;4980708;28;20033;-59
2023/02/08 03:38:26;;;;;;;30.30;14.82;;;;;;;;;;4982939;28;20046;-59
2023/02/08 03:40:51;;;;;;;;;;;;;;;;;;4982067;28;20030;-59
2023/02/08 03:43:22;;;;;;;30.17;12.33;;;;;;;;;;4987622;28;20221;-59
2023/02/08 03:45:53;;;;;;;27.90;12.32;;;;;;;;;;4979281;28;20315;-59
2023/02/08 03:48:20;;;;;;;25.55;12.25;;;;;;;;;;4976930;28;20486;-58
2023/02/08 03:50:48;;;;;;;27.65;13.80;;;;;;;;;;4985423;28;20035;-58
2023/02/08 03:53:15;;;;;;;27.10;12.88;;;;;;;;;;4977780;28;20068;-59
2023/02/08 03:55:43;;;;;;;25.58;12.35;;;;;;;;;;4983872;28;20049;-58
2023/02/08 03:58:16;;;;;;;28.48;14.23;;;;;;;;;;4989027;28;20410;-58
2023/02/08 04:00:44;;;;;;;31.58;12.82;;;;;;;;;;4975633;28;20152;-60
2023/02/08 04:03:21;;;;;;;30.15;13.43;;;;;;;;;;4986565;28;20058;-58
2023/02/08 04:05:47;;;;;;;28.98;12.63;;;;;;;;;;4978119;28;20037;-58
2023/02/08 04:08:12;;;;;;;27.75;12.85;;;;;;;;;;4981083;28;20038;-58
2023/02/08 04:10:37;;;;;;;27.85;12.13;;;;;;;;;;4984908;28;20359;-58
2023/02/08 04:13:03;;;;;;;28.92;13.30;;;;;;;;;;4975651;28;20031;-60
2023/02/08 04:15:29;;;;;;;32.25;13.50;;;;;;;;;;4982527;28;20033;-61
2023/02/08 04:17:54;;;;;;;25.45;12.13;;;;;;;;;;4978728;28;20038;-60
2023/02/08 04:20:20;;;;;;;28.60;13.20;;;;;;;;;;4983449;28;20034;-61
2023/02/08 04:22:45;;;;;;;31.90;13.75;;;;;;;;;;4979117;28;20106;-59
2023/02/08 04:25:10;;;;;;;27.35;12.88;;;;;;;;;;4979801;28;20026;-58
2023/02/08 04:27:36;;;;;;;29.75;13.07;;;;;;;;;;4985098;28;20446;-59
2023/02/08 04:30:02;;;;;;;31.98;13.57;;;;;;;;;;4978840;28;20453;-58
2023/02/08 04:32:27;;;;;;;34.03;13.40;;;;;;;;;;4985005;28;20467;-59
2023/02/08 04:34:53;;;;;;;30.77;14.23;;;;;;;;;;4977172;28;20022;-58
2023/02/08 04:37:18;;;;;;;34.83;14.77;;;;;;;;;;4975809;28;20053;-58
2023/02/08 04:39:43;;;;;;;26.85;13.63;;;;;;;;;;4984771;28;20435;-59
2023/02/08 04:42:08;;;;;;;30.58;14.07;;;;;;;;;;4976481;28;20038;-59
2023/02/08 04:44:34;;;;;;;37.20;16.85;;;;;;;;;;4984549;28;20034;-59
2023/02/08 04:46:59;;;;;;;37.15;15.90;;;;;;;;;;4978732;28;20076;-59
2023/02/08 04:49:25;;;;;;;36.05;13.77;;;;;;;;;;4978238;28;20038;-58
2023/02/08 04:51:50;;;;;;;32.17;13.93;;;;;;;;;;4985334;28;20049;-58
2023/02/08 04:54:18;;;;;;;32.45;13.75;;;;;;;;;;4976219;28;20496;-59
2023/02/08 04:56:46;;;;;;;33.78;14.38;;;;;;;;;;4984247;28;20059;-59
2023/02/08 04:59:11;;;;;;;31.45;14.40;;;;;;;;;;4978631;28;20529;-59
2023/02/08 05:01:40;;;;;;;34.47;13.13;;;;;;;;;;4977066;28;20026;-59
2023/02/08 05:04:05;;;;;;;37.13;16.60;;;;;;;;;;4985089;28;20058;-60
2023/02/08 05:06:30;;;;;;;40.60;15.43;;;;;;;;;;4980385;28;20113;-59
2023/02/08 05:08:58;;;;;;;29.23;14.68;;;;;;;;;;4982793;28;20026;-61
2023/02/08 05:11:24;;;;;;;38.47;15.43;;;;;;;;;;4979466;28;21422;-60
2023/02/08 05:13:49;;;;;;;27.67;13.68;;;;;;;;;;4977685;28;20383;-59
2023/02/08 05:16:15;;;;;;;28.73;14.82;;;;;;;;;;4984320;28;20034;-60
2023/02/08 05:18:40;;;;;;;37.78;15.52;;;;;;;;;;4974982;28;20546;-60
2023/02/08 05:21:06;;;;;;;32.58;13.77;;;;;;;;;;4976284;28;20787;-60
2023/02/08 05:23:32;;;;;;;32.03;14.05;;;;;;;;;;4982091;28;20469;-58
2023/02/08 05:25:57;;;;;;;34.80;14.32;;;;;;;;;;4976500;28;20057;-58
2023/02/08 05:28:23;;;;;;;35.28;14.15;;;;;;;;;;4983100;28;20074;-60
2023/02/08 05:30:48;;;;;;;33.65;14.65;;;;;;;;;;4976179;28;20030;-60
2023/02/08 05:33:13;;;;;;;34.10;14.68;;;;;;;;;;4977987;28;20018;-60
2023/02/08 05:35:38;;;;;;;31.17;15.80;;;;;;;;;;4979495;28;20475;-61
2023/02/08 05:38:04;;;;;;;31.02;13.70;;;;;;;;;;4973623;28;20066;-58
2023/02/08 05:40:29;;;;;;;31.60;13.93;;;;;;;;;;4985819;28;20030;-59
2023/02/08 05:42:54;;;;;;;33.58;14.57;;;;;;;;;;4977803;28;20022;-59
2023/02/08 05:45:20;;;;;;;35.90;16.10;;;;;;;;;;4977827;28;20038;-59
2023/02/08 05:47:46;;;;;;;37.67;15.85;;;;;;;;;;4982413;28;20117;-59
2023/02/08 05:50:12;;;;;;;42.90;17.45;;;;;;;;;;4976546;28;20036;-59
2023/02/08 05:52:37;;;;;;;44.03;19.98;;;;;;;;;;4982113;28;20046;-59
2023/02/08 05:55:02;;;;;;;40.85;17.58;;;;;;;;;;4976766;28;20026;-59
2023/02/08 05:57:28;;;;;;;41.88;18.45;;;;;;;;;;4976650;28;20214;-59
2023/02/08 05:59:53;;;;;;;35.25;16.02;;;;;;;;;;4983292;28;20194;-59
2023/02/08 06:02:18;;;;;;;33.95;14.13;;;;;;;;;;4975065;28;20049;-59
2023/02/08 06:04:44;;;;;;;40.30;18.45;;;;;;;;;;4978215;28;20037;-59
2023/02/08 06:07:10;;;;;;;40.25;17.63;;;;;;;;;;4975790;28;20053;-59
2023/02/08 06:09:35;;;;;;;41.85;18.83;;;;;;;;;;4973945;28;20228;-60
2023/02/08 06:12:00;;;;;;;39.80;17.05;;;;;;;;;;4979375;28;20121;-58
2023/02/08 06:14:26;;;;;;;41.83;16.60;;;;;;;;;;4970984;28;20022;-59
2023/02/08 06:16:51;;;;;;;33.25;15.45;;;;;;;;;;4980236;28;20034;-58
2023/02/08 06:19:17;;;;;;;35.67;16.10;;;;;;;;;;4977603;28;20038;-59
2023/02/08 06:21:42;;;;;;;41.17;16.38;;;;;;;;;;4975579;28;20030;-59
2023/02/08 06:24:09;;;;;;;36.25;16.85;;;;;;;;;;4980893;28;20109;-59
2023/02/08 06:26:34;;;;;;;37.43;16.07;;;;;;;;;;4977703;28;20018;-59
2023/02/08 06:29:00;;;;;;;35.70;16.45;;;;;;;;;;4980851;28;20415;-60
2023/02/08 06:31:25;;;;;;;36.88;15.63;;;;;;;;;;4973232;28;20058;-59
2023/02/08 06:33:50;;;;;;;34.08;15.57;;;;;;;;;;4968727;28;20084;-59
2023/02/08 06:36:16;;;;;;;34.95;17.08;;;;;;;;;;4983599;28;20062;-58
2023/02/08 06:38:41;;;;;;;32.72;14.40;;;;;;;;;;4975553;28;20046;-58
2023/02/08 06:41:06;;;;;;;30.05;14.70;;;;;;;;;;4980124;28;20049;-60
2023/02/08 06:43:32;;;;;;;37.33;16.38;;;;;;;;;;4977932;28;20030;-59
2023/02/08 06:46:03;;;;;;;38.85;16.63;;;;;;;;;;4976143;28;20034;-59
2023/02/08 06:48:28;;;;;;;33.67;15.95;;;;;;;;;;4983500;28;20034;-61
2023/02/08 06:50:54;;;;;;;38.30;15.52;;;;;;;;;;4974648;28;20041;-61
2023/02/08 06:53:20;;;;;;;35.67;15.30;;;;;;;;;;4985033;28;20077;-59
2023/02/08 06:55:48;;;;;;;36.20;15.23;;;;;;;;;;4976972;28;20151;-60
2023/02/08 06:58:17;;;;;;;35.95;16.40;;;;;;;;;;4972203;28;20034;-59
2023/02/08 07:00:44;;;;;;;37.08;15.35;;;;;;;;;;4979501;28;20036;-61
2023/02/08 07:03:10;;;;;;;36.20;15.60;;;;;;;;;;4973791;28;20060;-59
2023/02/08 07:05:35;;;;;;;34.88;16.02;;;;;;;;;;4978035;28;20027;-61
2023/02/08 07:08:00;;;;;;;35.00;15.55;;;;;;;;;;4978287;28;20030;-60
2023/02/08 07:10:26;;;;;;;35.95;15.68;;;;;;;;;;4977973;28;20034;-61
2023/02/08 07:12:51;;;;;;;37.20;16.25;;;;;;;;;;4985314;28;20369;-60
2023/02/08 07:15:16;;;;;;;39.67;16.38;;;;;;;;;;4978663;28;20137;-58
2023/02/08 07:17:42;;;;;;;41.55;17.08;;;;;;;;;;4985511;28;20345;-59
2023/02/08 07:20:08;;;;;;;40.08;16.73;;;;;;;;;;4976937;28;20041;-61
2023/02/08 07:22:33;;;;;;;39.47;16.23;;;;;;;;;;4990049;28;20041;-60
2023/02/08 07:24:59;;;;;;;37.17;15.07;;;;;;;;;;4984641;28;20418;-60
2023/02/08 07:27:24;;;;;;;37.88;16.00;;;;;;;;;;4976510;28;20054;-60
2023/02/08 07:29:49;;;;;;;35.78;17.05;;;;;;;;;;4984505;28;20526;-60
2023/02/08 07:32:14;;;;;;;40.38;17.42;;;;;;;;;;4974669;28;20261;-62
2023/02/08 07:34:40;;;;;;;33.78;15.27;;;;;;;;;;4976762;28;20034;-62
2023/02/08 07:37:06;;;;;;;36.63;15.35;;;;;;;;;;4984740;28;20509;-61
2023/02/08 07:39:31;;;;;;;35.35;15.43;;;;;;;;;;4977239;28;20452;-61
2023/02/08 07:41:57;;;;;;;39.80;16.08;;;;;;;;;;4985448;28;20480;-60
2023/02/08 07:44:23;;;;;;;41.20;17.10;;;;;;;;;;4994609;28;20037;-61
2023/02/08 07:46:48;;;;;;;35.05;15.68;;;;;;;;;;4977318;28;20018;-61
2023/02/08 07:49:13;;;;;;;36.00;15.52;;;;;;;;;;4983073;28;20576;-61
2023/02/08 07:51:39;;;;;;;38.05;15.88;;;;;;;;;;4978063;28;20473;-59
2023/02/08 07:54:04;;;;;;;37.63;16.45;;;;;;;;;;4982694;28;20529;-60
2023/02/08 07:56:29;;;;;;;48.08;18.17;;;;;;;;;;4979005;28;20030;-61
2023/02/08 07:58:54;;;;;;;48.42;17.42;;;;;;;;;;4975736;28;20073;-60
2023/02/08 08:01:20;;;;;;;37.15;17.58;;;;;;;;;;4983176;28;20034;-60
2023/02/08 08:03:45;;;;;;;46.83;18.25;;;;;;;;;;4980191;28;20030;-61
2023/02/08 08:06:10;;;;;;;39.60;16.35;;;;;;;;;;4984242;28;20072;-61
2023/02/08 08:08:36;;;;;;;37.45;17.38;;;;;;;;;;4977542;28;20030;-60
2023/02/08 08:11:01;;;;;;;40.28;18.10;;;;;;;;;;4976384;28;20497;-60
2023/02/08 08:13:26;;;;;;;40.53;17.15;;;;;;;;;;4982973;28;20040;-60
2023/02/08 08:15:51;;;;;;;38.95;16.75;;;;;;;;;;4977056;28;20033;-59
2023/02/08 08:18:17;;;;;;;44.50;17.27;;;;;;;;;;4983994;28;20048;-60
2023/02/08 08:20:42;;;;;;;43.17;17.17;;;;;;;;;;4978720;28;20557;-59
2023/02/08 08:23:07;;;;;;;39.95;18.10;;;;;;;;;;4979067;28;20031;-60
2023/02/08 08:25:33;;;;;;;40.35;17.70;;;;;;;;;;4983901;28;20034;-61
2023/02/08 08:27:59;;;;;;;37.63;16.85;;;;;;;;;;4978674;28;20034;-60
2023/02/08 08:30:24;;;;;;;36.85;16.17;;;;;;;;;;4994745;28;20945;-61
2023/02/08 08:32:52;;;;;;;38.15;17.58;;;;;;;;;;4978318;28;20034;-60
2023/02/08 08:35:17;;;;;;;39.67;17.25;;;;;;;;;;4978684;28;20529;-61
2023/02/08 08:37:43;;;;;;;37.65;16.67;;;;;;;;;;4984004;28;20427;-60
2023/02/08 08:40:08;;;;;;;39.70;15.82;;;;;;;;;;4974830;28;20026;-60
2023/02/08 08:42:35;;;;;;;36.28;15.98;;;;;;;;;;4982544;28;20419;-60
2023/02/08 08:45:00;;;;;;;38.05;16.10;;;;;;;;;;4977082;28;20240;-62
2023/02/08 08:47:26;;;;;;;36.00;16.13;;;;;;;;;;4979894;28;20042;-62
2023/02/08 08:49:51;;;;;;;34.47;15.43;;;;;;;;;;4982326;28;20038;-61
2023/02/08 08:52:16;;;;;;;39.00;16.88;;;;;;;;;;4977615;28;20026;-61
2023/02/08 08:54:41;;;;;;;29.10;15.50;;;;;;;;;;4985254;28;20487;-59
2023/02/08 08:57:07;;;;;;;33.72;15.48;;;;;;;;;;4977270;28;20026;-60
2023/02/08 08:59:33;;;;;;;37.63;16.05;;;;;;;;;;4976098;28;20271;-60
2023/02/08 09:01:58;;;;;;;30.17;14.65;;;;;;;;;;4980591;28;20542;-61
2023/02/08 09:04:23;;;;;;;36.15;14.85;;;;;;;;;;4976988;28;20117;-60
2023/02/08 09:06:49;;;;;;;35.95;15.48;;;;;;;;;;4983315;28;20030;-61
2023/02/08 09:09:14;;;;;;;35.53;15.60;;;;;;;;;;4978966;28;20165;-61
2023/02/08 09:11:40;;;;;;;32.15;15.07;;;;;;;;;;4975175;28;20369;-61
2023/02/08 09:14:05;;;;;;;33.45;15.55;;;;;;;;;;4981605;28;20462;-60
2023/02/08 09:16:31;;;;;;;30.30;13.35;;;;;;;;;;4975284;28;20038;-63
2023/02/08 09:18:59;;;;;;;30.13;13.45;;;;;;;;;;4980326;28;20034;-61
2023/02/08 09:21:25;;;;;;;30.50;14.80;;;;;;;;;;4977297;28;20030;-61
2023/02/08 09:23:50;;;;;;;30.70;14.38;;;;;;;;;;4974792;28;20355;-61
2023/02/08 09:26:16;;;;;;;33.03;13.38;;;;;;;;;;4982756;28;20030;-62
2023/02/08 09:28:42;;;;;;;34.55;15.30;;;;;;;;;;4974532;28;20217;-62
2023/02/08 09:31:11;;;;;;;31.30;14.20;;;;;;;;;;4975917;28;20036;-61
2023/02/08 09:33:37;;;;;;;37.15;15.07;;;;;;;;;;4980769;28;20117;-61
2023/02/08 09:36:03;;;;;;;34.72;15.38;;;;;;;;;;4972762;28;20040;-62
2023/02/08 09:38:28;;;;;;;38.78;14.82;;;;;;;;;;4980652;28;20034;-62
2023/02/08 09:41:09;;;;;;;32.75;14.43;;;;;;;;;;4974544;28;20422;-62
2023/02/08 09:43:40;;;;;;;31.73;14.60;;;;;;;;;;4972603;28;20093;-62
2023/02/08 09:46:22;;;;;;;31.75;13.90;;;;;;;;;;4980550;28;20030;-62
2023/02/08 09:48:49;;;;;;;30.95;12.93;;;;;;;;;;4974881;28;20033;-61
2023/02/08 09:51:14;;;;;;;32.40;14.13;;;;;;;;;;4981640;28;20072;-63
2023/02/08 09:53:43;;;;;;;27.75;13.48;;;;;;;;;;4975329;28;20158;-61
2023/02/08 09:56:10;;;;;;;32.08;14.20;;;;;;;;;;4974103;28;20150;-63
2023/02/08 09:58:40;;;;;;;27.83;12.80;;;;;;;;;;4982279;28;20434;-60
2023/02/08 10:01:09;;;;;;;29.88;13.70;;;;;;;;;;4974441;28;20054;-60
2023/02/08 10:03:39;;;;;;;32.65;14.15;;;;;;;;;;4971876;28;20630;-63
2023/02/08 10:06:05;;;;;;;25.45;12.98;;;;;;;;;;4977809;28;20034;-65
2023/02/08 10:08:31;;;;;;;32.10;12.83;;;;;;;;;;4974825;28;20499;-61
2023/02/08 10:11:05;;;;;;;27.90;13.23;;;;;;;;;;4979777;28;20027;-61
2023/02/08 10:13:49;;;;;;;25.70;12.68;;;;;;;;;;4973500;28;20038;-62
2023/02/08 10:16:40;;;;;;;36.03;13.40;;;;;;;;;;4974617;28;20030;-60
2023/02/08 10:19:20;;;;;;;26.23;12.43;;;;;;;;;;4979779;28;20077;-59
2023/02/08 10:21:45;;;;;;;31.08;14.07;;;;;;;;;;4970536;28;20023;-62
2023/02/08 10:24:23;;;;;;;28.55;13.18;;;;;;;;;;4972559;28;20029;-61
2023/02/08 10:26:54;;;;;;;27.40;12.75;;;;;;;;;;4981532;28;20093;-60
2023/02/08 10:29:25;;;;;;;33.97;14.25;;;;;;;;;;4972869;28;20026;-63
2023/02/08 10:31:53;;;;;;;26.55;14.13;;;;;;;;;;4975057;28;20025;-62
2023/02/08 10:34:19;;;;;;;29.17;12.52;;;;;;;;;;4981246;28;20397;-61
2023/02/08 10:36:44;;;;;;;28.65;13.48;;;;;;;;;;4972099;28;20034;-61
2023/02/08 10:39:32;;;;;;;29.58;13.88;;;;;;;;;;4980097;28;20046;-61
2023/02/08 10:41:58;;;;;;;28.77;12.80;;;;;;;;;;4973687;28;20180;-60
2023/02/08 10:44:35;;;;;;;26.88;12.98;;;;;;;;;;4972762;28;20022;-63
2023/02/08 10:47:07;;;;;;;29.20;12.45;;;;;;;;;;4979054;28;20034;-62
2023/02/08 10:49:36;;;;;;;26.73;11.63;;;;;;;;;;4970767;28;20035;-61
2023/02/08 10:52:01;;;;;;;24.45;13.15;;;;;;;;;;4972159;28;20065;-62
2023/02/08 10:54:26;;;;;;;26.15;12.43;;;;;;;;;;4979996;28;20118;-62
2023/02/08 10:56:56;;;;;;;26.02;11.95;;;;;;;;;;4975648;28;20536;-63
2023/02/08 10:59:24;;;;;;;25.98;12.45;;;;;;;;;;4978734;28;20034;-61
2023/02/08 11:01:50;;;;;;;29.10;13.38;;;;;;;;;;4973830;28;20031;-61
2023/02/08 11:04:15;;;;;;;18.65;9.60;;;;;;;;;;4975547;28;20456;-61
2023/02/08 11:06:41;;;;;;;23.55;11.50;;;;;;;;;;4979644;28;20069;-60
2023/02/08 11:09:18;;;;;;;22.77;10.60;;;;;;;;;;4973730;28;20038;-60
2023/02/08 11:11:45;;;;;;;25.50;11.10;;;;;;;;;;4980339;28;20114;-61
2023/02/08 11:14:18;;;;;;;21.17;9.80;;;;;;;;;;4976256;28;20037;-60
2023/02/08 11:16:54;;;;;;;22.75;10.57;;;;;;;;;;4971081;28;20038;-61
2023/02/08 11:19:28;;;;;;;18.73;9.85;;;;;;;;;;4979674;28;20037;-61
2023/02/08 11:21:54;;;;;;;21.08;10.00;;;;;;;;;;4974190;28;20039;-60
2023/02/08 11:24:32;;;;;;;23.67;9.20;;;;;;;;;;4975163;28;20037;-59
2023/02/08 11:26:57;;;;;;;21.55;9.40;;;;;;;;;;4978806;28;20030;-61
2023/02/08 11:29:26;;;;;;;18.95;9.48;;;;;;;;;;4975785;28;20687;-61
2023/02/08 11:31:57;;;;;;;17.98;9.35;;;;;;;;;;4981363;28;20032;-60
2023/02/08 11:34:31;;;;;;;19.02;9.20;;;;;;;;;;4973777;28;20031;-60
2023/02/08 11:36:57;;;;;;;23.58;9.25;;;;;;;;;;4973480;28;20129;-60
2023/02/08 11:39:39;;;;;;;14.95;8.30;;;;;;;;;;4981201;28;20030;-61
2023/02/08 11:42:05;;;;;;;19.48;9.13;;;;;;;;;;4974252;28;20042;-61
2023/02/08 11:44:32;;;;;;;14.73;8.18;;;;;;;;;;4975119;28;20031;-61
2023/02/08 11:47:02;;;;;;;19.65;9.65;;;;;;;;;;4977053;28;20038;-60
2023/02/08 11:49:31;;;;;;;15.15;8.68;;;;;;;;;;4973312;28;20184;-61
2023/02/08 11:51:56;;;;;;;19.02;9.77;;;;;;;;;;4983563;28;20558;-60
2023/02/08 11:54:32;;;;;;;19.50;10.48;;;;;;;;;;4976810;28;20026;-60
2023/02/08 11:57:12;;;;;;;18.15;9.95;;;;;;;;;;4976632;28;20471;-60
2023/02/08 11:59:37;;;;;;;17.23;10.02;;;;;;;;;;4980294;28;20027;-60
2023/02/08 12:02:21;;;;;;;17.42;10.38;;;;;;;;;;4977525;28;20047;-59
2023/02/08 12:04:47;;;;;;;16.20;8.45;;;;;;;;;;4976807;28;20030;-61
2023/02/08 12:07:21;;;;;;;15.88;9.73;;;;;;;;;;4984340;28;20032;-59
2023/02/08 12:09:50;;;;;;;16.30;8.80;;;;;;;;;;4975253;28;20365;-60
2023/02/08 12:12:16;;;;;;;16.33;8.75;;;;;;;;;;4982545;28;20034;-60
2023/02/08 12:14:47;;;;;;;14.77;8.87;;;;;;;;;;4978659;28;20038;-59
2023/02/08 12:17:32;;;;;;;16.92;8.95;;;;;;;;;;4979091;28;20026;-60
2023/02/08 12:20:16;;;;;;;21.70;8.73;;;;;;;;;;4985389;28;20482;-60
2023/02/08 12:22:50;;;;;;;17.88;8.63;;;;;;;;;;4975471;28;20132;-60
2023/02/08 12:25:18;;;;;;;13.35;8.23;;;;;;;;;;4978562;28;20037;-60
2023/02/08 12:27:51;;;;;;;15.23;7.55;;;;;;;;;;4984858;28;20399;-61
2023/02/08 12:30:19;;;;;;;12.98;6.95;;;;;;;;;;4978556;28;20121;-61
2023/02/08 12:32:54;;;;;;;15.95;7.95;;;;;;;;;;4978364;28;20065;-60
2023/02/08 12:35:29;;;;;;;16.05;8.32;;;;;;;;;;4985031;28;20038;-61
2023/02/08 12:40:48;;;;;;;13.43;7.05;;;;;;;;;;4978884;28;20030;-62
2023/02/08 12:43:32;;;;;;;13.30;7.50;;;;;;;;;;4986997;28;20034;-59
2023/02/08 12:46:07;;;;;;;14.48;8.05;;;;;;;;;;4973900;28;20030;-60
2023/02/08 12:48:33;;;;;;;15.43;8.73;;;;;;;;;;4983976;28;20041;-61
2023/02/08 12:51:16;;;;;;;13.70;8.23;;;;;;;;;;4979186;28;20399;-60
2023/02/08 12:53:51;;;;;;;14.45;7.93;;;;;;;;;;4970832;28;20045;-60
2023/02/08 12:56:22;;;;;;;18.38;9.23;;;;;;;;;;4985668;28;20034;-59
2023/02/08 12:58:49;;;;;;;17.08;7.95;;;;;;;;;;4975898;28;20068;-60
2023/02/08 13:01:33;;;;;;;13.57;7.85;;;;;;;;;;4980206;28;20472;-59
2023/02/08 13:04:08;;;;;;;13.63;7.57;;;;;;;;;;4982830;28;20478;-59
2023/02/08 13:06:41;;;;;;;13.68;7.88;;;;;;;;;;4977814;28;20315;-60
2023/02/08 13:09:18;;;;;;;12.10;7.25;;;;;;;;;;4979038;28;20042;-60
2023/02/08 13:12:07;;;;;;;14.75;7.97;;;;;;;;;;4983977;28;20041;-59
2023/02/08 13:14:50;;;;;;;13.27;8.18;;;;;;;;;;4979135;28;20046;-59
2023/02/08 13:17:16;;;;;;;15.27;7.38;;;;;;;;;;4979166;28;20038;-59
2023/02/08 13:19:47;;;;;;;14.35;8.20;;;;;;;;;;4984615;28;20041;-60
2023/02/08 13:22:13;;;;;;;15.52;8.05;;;;;;;;;;4976166;28;20045;-59
2023/02/08 13:24:43;;;;;;;14.45;7.40;;;;;;;;;;4984190;28;20041;-59
2023/02/08 13:27:14;;;;;;;11.25;7.05;;;;;;;;;;4981180;28;20081;-60
2023/02/08 13:29:39;;;;;;;13.18;7.63;;;;;;;;;;4977222;28;20022;-59
2023/02/08 13:32:07;;;;;;;13.88;7.78;;;;;;;;;;4984326;28;20093;-60
2023/02/08 13:34:35;;;;;;;15.00;7.30;;;;;;;;;;4976756;28;20433;-60
2023/02/08 13:37:02;;;;;;;13.90;7.70;;;;;;;;;;4984714;28;20037;-59
2023/02/08 13:39:34;;;;;;;14.68;8.02;;;;;;;;;;4976076;28;20026;-60
2023/02/08 13:42:00;;;;;;;13.60;8.07;;;;;;;;;;4973375;28;20503;-60
2023/02/08 13:44:29;;;;;;;13.37;8.47;;;;;;;;;;4980219;28;20030;-60
2023/02/08 13:46:55;;;;;;;14.35;7.80;;;;;;;;;;4975010;28;20160;-59
2023/02/08 13:49:41;;;;;;;12.00;8.15;;;;;;;;;;4974640;28;20399;-59
2023/02/08 13:52:06;;;;;;;15.30;8.48;;;;;;;;;;4985748;28;20026;-60
2023/02/08 13:54:32;;;;;;;16.85;8.85;;;;;;;;;;4977390;28;20022;-59
2023/02/08 13:56:58;;;;;;;16.58;9.50;;;;;;;;;;4984955;28;20102;-60
2023/02/08 13:59:32;;;;;;;14.13;8.38;;;;;;;;;;4977569;28;20521;-60
2023/02/08 14:02:11;;;;;;;17.25;10.35;;;;;;;;;;4975863;28;20154;-59
2023/02/08 14:04:38;;;;;;;16.15;9.18;;;;;;;;;;4983368;28;20034;-59
2023/02/08 14:07:23;;;;;;;15.05;9.00;;;;;;;;;;4978286;28;20034;-58
2023/02/08 14:10:01;;;;;;;15.23;9.05;;;;;;;;;;4976808;28;20049;-60
2023/02/08 14:12:33;;;;;;;15.32;9.20;;;;;;;;;;4979610;28;20035;-63
2023/02/08 14:15:05;;;;;;;15.95;9.13;;;;;;;;;;4976293;28;20026;-59
2023/02/08 14:17:30;;;;;;;16.30;9.80;;;;;;;;;;4979993;28;20050;-59
2023/02/08 14:19:57;;;;;;;16.80;9.30;;;;;;;;;;4981643;28;20416;-59
2023/02/08 14:22:23;;;;;;;17.05;9.45;;;;;;;;;;4966106;28;20058;-58
2023/02/08 14:24:59;;;;;;;17.35;9.68;;;;;;;;;;4981220;28;20939;-60
2023/02/08 14:27:27;;;;;;;14.95;8.68;;;;;;;;;;4972392;28;20415;-59
2023/02/08 14:30:00;;;;;;;15.65;8.93;;;;;;;;;;4973069;28;20685;-58
2023/02/08 14:32:27;;;;;;;16.27;8.77;;;;;;;;;;4964170;28;20784;-60
2023/02/08 14:35:11;;;;;;;17.35;9.27;;;;;;;;;;4966203;28;21170;-61